Time;durP1;ratioP1;P1;durP2;ratioP2;P2;SDS_P1;SDS_P2;PMS_P1;PMS_P2;Temp;Humidity;BMP_temperature;BMP_pressure;BME280_temperature;BME280_humidity;BME280_pressure;Samples;Min_cycle;Max_cycle;Signal;HPM_P1;HPM_P2
2020/12/07 00:00:11;;;;;;;22.30;11.65;;;1.70;99.90;;;;;;4971250;28;20077;-83
2020/12/07 00:02:37;;;;;;;21.70;10.07;;;1.80;99.90;;;;;;4970616;28;20039;-82
2020/12/07 00:05:04;;;;;;;18.65;9.50;;;1.80;99.90;;;;;;4970975;28;20050;-83
2020/12/07 00:07:29;;;;;;;21.58;11.07;;;1.80;99.90;;;;;;4972083;28;20027;-84
2020/12/07 00:09:55;;;;;;;20.33;10.00;;;1.80;99.90;;;;;;4971367;28;20486;-81
2020/12/07 00:12:28;;;;;;;18.33;9.00;;;1.80;99.90;;;;;;4970885;28;20034;-81
2020/12/07 00:14:53;;;;;;;17.92;9.10;;;1.80;99.90;;;;;;4969230;28;20765;-82
2020/12/07 00:17:21;;;;;;;20.83;10.73;;;1.80;99.90;;;;;;4970390;28;20030;-82
2020/12/07 00:19:47;;;;;;;18.30;9.00;;;1.80;99.90;;;;;;4965574;28;20023;-82
2020/12/07 00:22:19;;;;;;;20.97;11.33;;;1.80;99.90;;;;;;4967719;28;20049;-82
2020/12/07 00:24:44;;;;;;;20.10;10.65;;;1.80;99.90;;;;;;4971589;28;20031;-82
2020/12/07 00:27:10;;;;;;;16.85;9.10;;;1.80;99.90;;;;;;4970251;28;20134;-82
2020/12/07 00:29:35;;;;;;;17.42;8.93;;;1.90;99.90;;;;;;4968575;28;20038;-83
2020/12/07 00:32:01;;;;;;;21.83;11.63;;;1.80;99.90;;;;;;4969991;28;20056;-82
2020/12/07 00:34:27;;;;;;;23.02;11.45;;;1.90;99.90;;;;;;4968211;28;20034;-81
2020/12/07 00:36:52;;;;;;;19.70;9.90;;;1.90;99.90;;;;;;4970439;28;20057;-81
2020/12/07 00:39:18;;;;;;;19.30;10.30;;;1.90;99.90;;;;;;4971152;28;20041;-80
2020/12/07 00:41:43;;;;;;;18.55;9.98;;;1.90;99.90;;;;;;4970837;28;20126;-80
2020/12/07 00:44:09;;;;;;;16.48;9.23;;;1.90;99.90;;;;;;4971112;28;20062;-81
2020/12/07 00:46:35;;;;;;;17.95;9.63;;;2.00;99.90;;;;;;4970096;28;20099;-82
2020/12/07 00:49:00;;;;;;;16.15;8.70;;;2.00;99.90;;;;;;4970707;28;20031;-81
2020/12/07 00:51:26;;;;;;;17.92;9.90;;;2.00;99.90;;;;;;4970674;28;20039;-80
2020/12/07 00:53:51;;;;;;;15.85;8.52;;;2.00;99.90;;;;;;4967062;28;20057;-81
2020/12/07 00:56:17;;;;;;;18.05;9.45;;;2.00;99.90;;;;;;4967071;28;20023;-81
2020/12/07 00:58:43;;;;;;;16.55;8.93;;;2.00;99.90;;;;;;4969556;28;20130;-81
2020/12/07 01:01:08;;;;;;;16.45;8.77;;;2.00;99.90;;;;;;4970723;28;20401;-83
2020/12/07 01:03:34;;;;;;;14.88;8.27;;;2.00;99.90;;;;;;4970019;28;20043;-81
2020/12/07 01:06:01;;;;;;;16.23;8.18;;;1.90;99.90;;;;;;4970318;28;20027;-81
2020/12/07 01:08:26;;;;;;;17.20;9.10;;;1.90;99.90;;;;;;4970933;28;20086;-80
2020/12/07 01:10:56;;;;;;;16.50;8.63;;;1.90;99.90;;;;;;4971300;28;20030;-81
2020/12/07 01:13:22;;;;;;;14.85;7.72;;;2.00;99.90;;;;;;4970360;28;20117;-82
2020/12/07 01:15:49;;;;;;;15.77;8.43;;;1.90;99.90;;;;;;4970134;28;20038;-81
2020/12/07 01:18:16;;;;;;;15.40;8.43;;;1.90;99.90;;;;;;4970253;28;20035;-81
2020/12/07 01:20:41;;;;;;;15.40;8.70;;;1.90;99.90;;;;;;4969673;28;20126;-80
2020/12/07 01:23:07;;;;;;;17.83;9.73;;;2.00;99.90;;;;;;4968744;28;20138;-81
2020/12/07 01:25:32;;;;;;;15.83;9.20;;;2.00;99.90;;;;;;4970774;28;20033;-80
2020/12/07 01:27:58;;;;;;;15.70;8.20;;;2.00;99.90;;;;;;4970892;28;20034;-80
2020/12/07 01:30:23;;;;;;;17.23;9.88;;;2.00;99.90;;;;;;4970967;28;20038;-82
2020/12/07 01:32:49;;;;;;;13.60;8.60;;;2.00;99.90;;;;;;4972339;28;20031;-82
2020/12/07 01:35:15;;;;;;;15.32;8.98;;;2.00;99.90;;;;;;4973838;28;20031;-80
2020/12/07 01:37:40;;;;;;;14.57;8.60;;;2.00;99.90;;;;;;4975044;28;20122;-78
2020/12/07 01:40:06;;;;;;;13.63;8.30;;;2.10;99.90;;;;;;4975694;28;20030;-82
2020/12/07 01:42:31;;;;;;;15.27;8.55;;;2.10;99.90;;;;;;4975210;28;20046;-81
2020/12/07 01:44:57;;;;;;;14.38;8.18;;;2.10;99.90;;;;;;4976411;28;20441;-80
2020/12/07 01:47:28;;;;;;;14.75;8.68;;;2.00;99.90;;;;;;4973539;28;20055;-83
2020/12/07 01:49:54;;;;;;;17.20;10.07;;;2.00;99.90;;;;;;4956442;28;20035;-81
2020/12/07 01:52:21;;;;;;;13.87;7.33;;;2.00;99.90;;;;;;4973547;28;20053;-81
2020/12/07 01:54:48;;;;;;;13.15;6.95;;;2.00;99.90;;;;;;4973945;28;20081;-81
2020/12/07 01:57:14;;;;;;;12.45;7.32;;;2.10;99.90;;;;;;4973078;28;20105;-82
2020/12/07 01:59:40;;;;;;;13.85;8.02;;;2.00;99.90;;;;;;4973637;28;20123;-81
2020/12/07 02:02:06;;;;;;;13.40;7.28;;;2.00;99.90;;;;;;4973248;28;20030;-79
2020/12/07 02:04:32;;;;;;;14.00;7.70;;;2.10;99.90;;;;;;4972138;28;20050;-81
2020/12/07 02:06:58;;;;;;;14.50;7.80;;;2.00;99.90;;;;;;4973448;28;20102;-80
2020/12/07 02:09:28;;;;;;;14.33;9.27;;;2.00;99.90;;;;;;4973865;28;20033;-82
2020/12/07 02:11:53;;;;;;;;;;;2.10;99.90;;;;;;4977118;28;20472;-82
2020/12/07 02:14:19;;;;;;;12.80;7.38;;;2.10;99.90;;;;;;4981788;28;19949;-81
2020/12/07 02:16:45;;;;;;;13.95;8.75;;;2.10;99.90;;;;;;4996665;28;20079;-82
2020/12/07 02:19:11;;;;;;;11.80;7.07;;;2.10;99.90;;;;;;4976955;28;20093;-81
2020/12/07 02:21:36;;;;;;;13.03;8.33;;;2.10;99.90;;;;;;4981069;28;20059;-81
2020/12/07 02:24:02;;;;;;;11.67;6.23;;;2.00;99.90;;;;;;4985510;28;20066;-80
2020/12/07 02:26:27;;;;;;;13.43;7.88;;;2.00;99.90;;;;;;4985546;28;20084;-80
2020/12/07 02:28:53;;;;;;;13.68;8.32;;;2.10;99.90;;;;;;4974066;28;20046;-82
2020/12/07 02:31:19;;;;;;;14.68;8.57;;;2.00;99.90;;;;;;4973315;28;20355;-81
2020/12/07 02:33:44;;;;;;;12.30;6.22;;;2.00;99.90;;;;;;4974245;28;20038;-82
2020/12/07 02:36:10;;;;;;;9.23;5.15;;;2.00;99.90;;;;;;4971881;28;20054;-80
2020/12/07 02:38:36;;;;;;;12.10;6.25;;;2.00;99.90;;;;;;4973218;28;20121;-81
2020/12/07 02:41:02;;;;;;;7.93;4.88;;;2.00;99.90;;;;;;4972894;28;20614;-82
2020/12/07 02:43:27;;;;;;;9.80;4.70;;;2.00;99.90;;;;;;4972544;28;20042;-80
2020/12/07 02:45:53;;;;;;;12.55;7.75;;;1.90;99.90;;;;;;4966623;28;20094;-80
2020/12/07 02:48:18;;;;;;;12.57;7.50;;;2.00;99.90;;;;;;4969060;28;20082;-82
2020/12/07 02:50:44;;;;;;;10.77;6.53;;;2.00;99.90;;;;;;4972459;28;20386;-81
2020/12/07 02:53:10;;;;;;;11.43;6.63;;;1.90;99.90;;;;;;4972304;28;20031;-82
2020/12/07 02:55:35;;;;;;;11.65;6.57;;;1.90;99.90;;;;;;4957116;28;20065;-81
2020/12/07 02:58:01;;;;;;;11.35;6.97;;;1.90;99.90;;;;;;4972627;28;20034;-80
2020/12/07 03:00:27;;;;;;;10.93;6.33;;;1.90;99.90;;;;;;4971533;28;20019;-81
2020/12/07 03:02:52;;;;;;;11.20;6.60;;;1.90;99.90;;;;;;4972557;28;20066;-80
2020/12/07 03:05:18;;;;;;;11.15;6.90;;;1.80;99.90;;;;;;4972797;28;20482;-80
2020/12/07 03:07:44;;;;;;;13.02;7.85;;;1.70;99.90;;;;;;4972519;28;20526;-84
2020/12/07 03:10:09;;;;;;;10.17;6.30;;;1.60;99.90;;;;;;4972292;28;20398;-82
2020/12/07 03:12:35;;;;;;;11.60;7.10;;;1.50;99.90;;;;;;4972082;28;20563;-82
2020/12/07 03:15:00;;;;;;;12.67;7.30;;;1.40;99.90;;;;;;4974193;28;20414;-81
2020/12/07 03:17:26;;;;;;;13.47;7.83;;;1.40;99.90;;;;;;4971649;28;20052;-79
2020/12/07 03:19:52;;;;;;;11.47;7.30;;;1.40;99.90;;;;;;4970380;28;20035;-81
2020/12/07 03:22:17;;;;;;;12.00;7.27;;;1.40;99.90;;;;;;4971766;28;20031;-81
2020/12/07 03:24:43;;;;;;;12.63;7.73;;;1.40;99.90;;;;;;4970719;28;20035;-81
2020/12/07 03:27:09;;;;;;;13.88;7.95;;;1.50;99.90;;;;;;4971147;28;20022;-81
2020/12/07 03:29:34;;;;;;;12.97;7.63;;;1.50;99.90;;;;;;4971304;28;20042;-80
2020/12/07 03:32:00;;;;;;;12.43;7.83;;;1.40;99.90;;;;;;4984046;28;20087;-81
2020/12/07 03:34:25;;;;;;;12.48;7.38;;;1.40;99.90;;;;;;4985134;28;20035;-81
2020/12/07 03:36:51;;;;;;;15.40;8.37;;;1.40;99.90;;;;;;4977172;28;20089;-80
2020/12/07 03:39:17;;;;;;;13.17;7.67;;;1.40;99.90;;;;;;4972553;28;20027;-79
2020/12/07 03:41:44;;;;;;;13.00;7.70;;;1.40;99.90;;;;;;4970457;28;20046;-81
2020/12/07 03:44:09;;;;;;;14.53;8.03;;;1.40;99.90;;;;;;4954111;28;20514;-81
2020/12/07 03:46:35;;;;;;;13.18;7.47;;;1.40;99.90;;;;;;4969728;28;20047;-81
2020/12/07 03:49:01;;;;;;;13.15;7.80;;;1.40;99.90;;;;;;4971705;28;20042;-83
2020/12/07 03:51:26;;;;;;;13.10;7.07;;;1.40;99.90;;;;;;4970830;28;20113;-80
2020/12/07 03:53:52;;;;;;;13.27;7.50;;;1.40;99.90;;;;;;4972108;28;20030;-81
2020/12/07 03:56:18;;;;;;;14.60;8.40;;;1.40;99.90;;;;;;4970536;28;20068;-81
2020/12/07 03:58:43;;;;;;;13.63;7.93;;;1.30;99.90;;;;;;4970407;28;20194;-82
2020/12/07 04:01:10;;;;;;;13.82;7.88;;;1.30;99.90;;;;;;4954448;28;20487;-82
2020/12/07 04:03:36;;;;;;;14.67;8.80;;;1.30;99.90;;;;;;4970571;28;20053;-82
2020/12/07 04:06:11;;;;;;;13.18;7.60;;;1.40;99.90;;;;;;4969991;28;20886;-81
2020/12/07 04:08:37;;;;;;;13.43;7.80;;;1.40;99.90;;;;;;4966995;28;20039;-83
2020/12/07 04:11:03;;;;;;;13.00;7.73;;;1.40;99.90;;;;;;4971602;28;20081;-81
2020/12/07 04:13:29;;;;;;;12.45;7.68;;;1.30;99.90;;;;;;4969722;28;20081;-82
2020/12/07 04:15:55;;;;;;;11.40;6.10;;;1.30;99.90;;;;;;4970319;28;20027;-81
2020/12/07 04:18:21;;;;;;;11.10;6.43;;;1.30;99.90;;;;;;4970023;28;20061;-82
2020/12/07 04:20:46;;;;;;;11.40;6.13;;;1.30;99.90;;;;;;4971030;28;20034;-81
2020/12/07 04:23:12;;;;;;;11.60;6.80;;;1.30;99.90;;;;;;4970875;28;20034;-81
2020/12/07 04:25:38;;;;;;;11.95;6.50;;;1.20;99.90;;;;;;4970850;28;20181;-81
2020/12/07 04:28:03;;;;;;;10.67;6.30;;;1.20;99.90;;;;;;4967359;28;20031;-81
2020/12/07 04:30:29;;;;;;;8.77;4.40;;;1.20;99.90;;;;;;4971396;28;20042;-81
2020/12/07 04:32:55;;;;;;;11.03;6.50;;;1.20;99.90;;;;;;4970978;28;20039;-82
2020/12/07 04:35:20;;;;;;;8.53;4.87;;;1.20;99.90;;;;;;4967949;28;20118;-81
2020/12/07 04:37:46;;;;;;;7.47;3.93;;;1.20;99.90;;;;;;4953996;28;20130;-81
2020/12/07 04:40:12;;;;;;;8.83;5.50;;;1.30;99.90;;;;;;4970412;28;20029;-80
2020/12/07 04:42:40;;;;;;;7.60;4.30;;;1.30;99.90;;;;;;4971705;28;20054;-82
2020/12/07 04:45:06;;;;;;;7.87;4.50;;;1.40;99.90;;;;;;4974078;28;20042;-81
2020/12/07 04:47:34;;;;;;;8.97;4.93;;;1.40;99.90;;;;;;4974168;28;20301;-82
2020/12/07 04:50:06;;;;;;;7.43;4.73;;;1.40;99.90;;;;;;4972970;28;20035;-81
2020/12/07 04:52:33;;;;;;;8.90;5.40;;;1.40;99.90;;;;;;4974474;28;20026;-81
2020/12/07 04:55:00;;;;;;;9.23;4.97;;;1.30;99.90;;;;;;4985059;28;20030;-81
2020/12/07 04:57:28;;;;;;;7.60;4.77;;;1.40;99.90;;;;;;4988082;28;20058;-80
2020/12/07 04:59:54;;;;;;;7.77;4.70;;;1.40;99.90;;;;;;4973705;28;20035;-80
2020/12/07 05:02:19;;;;;;;7.60;4.67;;;1.40;99.90;;;;;;4978022;28;20067;-81
2020/12/07 05:04:45;;;;;;;9.10;5.60;;;1.40;99.90;;;;;;4970607;28;20040;-83
2020/12/07 05:07:11;;;;;;;7.77;4.83;;;1.50;99.90;;;;;;4973658;28;20031;-83
2020/12/07 05:09:38;;;;;;;7.93;4.97;;;1.50;99.90;;;;;;4974541;28;20038;-82
2020/12/07 05:14:44;;;;;;;7.93;5.17;;;1.50;99.90;;;;;;4974122;28;20698;-82
2020/12/07 05:17:09;;;;;;;9.02;5.60;;;1.40;99.90;;;;;;4973684;28;20031;-81
2020/12/07 05:19:35;;;;;;;9.17;5.90;;;1.40;99.90;;;;;;4975610;28;20054;-81
2020/12/07 05:22:01;;;;;;;7.57;5.10;;;1.40;99.90;;;;;;4975102;28;20026;-81
2020/12/07 05:24:26;;;;;;;8.88;5.57;;;1.50;99.90;;;;;;4974964;28;20061;-81
2020/12/07 05:26:53;;;;;;;9.17;5.53;;;1.50;99.90;;;;;;4975115;28;20528;-81
2020/12/07 05:29:33;;;;;;;8.87;5.63;;;1.50;99.90;;;;;;4974075;28;20047;-83
2020/12/07 05:31:58;;;;;;;8.43;5.32;;;1.50;99.90;;;;;;4980192;28;20054;-83
2020/12/07 05:34:25;;;;;;;7.73;4.57;;;1.50;99.90;;;;;;4957716;28;20231;-81
2020/12/07 05:36:56;;;;;;;8.93;5.27;;;1.50;99.90;;;;;;4973590;28;20023;-82
2020/12/07 05:39:25;;;;;;;9.10;4.83;;;1.50;99.90;;;;;;4956518;28;20121;-84
2020/12/07 05:41:55;;;;;;;9.37;5.43;;;1.50;99.90;;;;;;4972581;28;20063;-84
2020/12/07 05:44:21;;;;;;;8.20;4.63;;;1.50;99.90;;;;;;4971885;28;20064;-82
2020/12/07 05:46:50;;;;;;;7.90;4.97;;;1.40;99.90;;;;;;4953316;28;20101;-82
2020/12/07 05:49:22;;;;;;;6.43;4.10;;;1.50;99.90;;;;;;4971567;28;20031;-82
2020/12/07 05:52:03;;;;;;;7.87;4.40;;;1.40;99.90;;;;;;4973481;28;20027;-83
2020/12/07 05:54:32;;;;;;;6.55;3.67;;;1.40;99.90;;;;;;4972468;28;20023;-84
2020/12/07 05:57:10;;;;;;;5.90;3.67;;;1.50;99.90;;;;;;4958823;28;20049;-83
2020/12/07 05:59:41;;;;;;;8.07;4.53;;;1.50;99.90;;;;;;4977415;28;20031;-83
2020/12/07 06:02:10;;;;;;;6.53;4.43;;;1.50;99.90;;;;;;4975367;28;20594;-81
2020/12/07 06:04:36;;;;;;;6.15;4.18;;;1.50;99.90;;;;;;4957950;28;20049;-82
2020/12/07 06:07:35;;;;;;;;;;;;;;;;;;;;;
2020/12/07 06:09:58;;;;;;;7.53;4.43;;;1.50;99.90;;;;;;4971769;28;20061;-80
2020/12/07 06:12:30;;;;;;;6.47;4.00;;;1.50;99.90;;;;;;4974573;28;20031;-82
2020/12/07 06:14:57;;;;;;;7.45;4.45;;;1.40;99.90;;;;;;4976993;28;20038;-83
2020/12/07 06:17:24;;;;;;;8.98;4.20;;;1.40;99.90;;;;;;4974856;28;20039;-83
2020/12/07 06:19:53;;;;;;;8.13;4.50;;;1.40;99.90;;;;;;4972040;28;20065;-83
2020/12/07 06:22:21;;;;;;;7.72;4.10;;;1.40;99.90;;;;;;4969672;28;20026;-75
2020/12/07 06:24:50;;;;;;;7.00;4.40;;;1.40;99.90;;;;;;4971341;28;20494;-76
2020/12/07 06:27:16;;;;;;;6.77;4.20;;;1.40;99.90;;;;;;4972554;28;20015;-76
2020/12/07 06:30:05;;;;;;;7.18;4.43;;;1.40;99.90;;;;;;4973153;28;20031;-75
2020/12/07 06:32:48;;;;;;;6.88;4.10;;;1.30;99.90;;;;;;4971823;28;20391;-74
2020/12/07 06:35:14;;;;;;;6.57;4.00;;;1.40;99.90;;;;;;4973741;28;20101;-76
2020/12/07 06:37:45;;;;;;;6.68;4.07;;;1.40;99.90;;;;;;4972292;28;20111;-75
2020/12/07 06:40:11;;;;;;;6.63;4.30;;;1.40;99.90;;;;;;4971721;28;20022;-78
2020/12/07 06:42:42;;;;;;;9.48;4.32;;;1.50;99.90;;;;;;4972511;28;20386;-76
2020/12/07 06:45:10;;;;;;;8.53;4.63;;;1.50;99.90;;;;;;4972164;28;20030;-78
2020/12/07 06:47:40;;;;;;;8.07;4.57;;;1.50;99.90;;;;;;4933530;29;20136;-75
2020/12/07 06:50:15;;;;;;;8.05;4.78;;;1.50;99.90;;;;;;4932659;29;20027;-75
2020/12/07 06:52:42;;;;;;;11.15;5.65;;;1.60;99.90;;;;;;4928232;29;20027;-75
2020/12/07 06:55:13;;;;;;;7.13;4.15;;;1.60;99.90;;;;;;4933063;29;20016;-75
2020/12/07 06:57:51;;;;;;;8.05;4.45;;;1.60;99.90;;;;;;4936592;29;20058;-75
2020/12/07 07:00:24;;;;;;;7.80;4.13;;;1.60;99.90;;;;;;4934530;29;20020;-76
2020/12/07 07:02:50;;;;;;;6.83;4.13;;;1.60;99.90;;;;;;4929574;29;20046;-77
2020/12/07 07:05:21;;;;;;;6.68;3.95;;;1.60;99.90;;;;;;4933092;29;20364;-75
2020/12/07 07:07:47;;;;;;;5.40;3.70;;;1.70;99.90;;;;;;4931488;29;20024;-75
2020/12/07 07:10:15;;;;;;;8.68;4.38;;;1.60;99.90;;;;;;4938892;29;20034;-75
2020/12/07 07:12:41;;;;;;;5.67;3.80;;;1.70;99.90;;;;;;4932349;29;20090;-76
2020/12/07 07:15:09;;;;;;;6.38;3.50;;;1.60;99.90;;;;;;4930190;29;20575;-74
2020/12/07 07:17:37;;;;;;;8.02;4.65;;;1.60;99.90;;;;;;4933126;29;20027;-74
2020/12/07 07:20:08;;;;;;;7.60;4.05;;;1.60;99.90;;;;;;4932603;29;20028;-74
2020/12/07 07:22:37;;;;;;;7.03;4.40;;;1.60;99.90;;;;;;4932299;29;20067;-75
2020/12/07 07:30:20;;;;;;;6.85;4.40;;;1.50;99.90;;;;;;4929692;29;20055;-75
2020/12/07 07:32:48;;;;;;;11.73;4.63;;;1.60;99.90;;;;;;4930357;29;20055;-77
2020/12/07 07:35:17;;;;;;;7.28;4.80;;;1.60;99.90;;;;;;4935257;29;20194;-76
2020/12/07 07:37:42;;;;;;;8.27;4.95;;;1.60;99.90;;;;;;4932238;29;20114;-75
2020/12/07 07:40:13;;;;;;;8.50;4.78;;;1.70;99.90;;;;;;4932984;29;20040;-74
2020/12/07 07:42:46;;;;;;;8.07;4.82;;;1.70;99.90;;;;;;4932405;29;20030;-74
2020/12/07 07:45:13;;;;;;;10.02;5.22;;;1.70;99.90;;;;;;4932950;29;20059;-75
2020/12/07 08:12:49;;;;;;;8.20;5.05;;;1.90;99.90;;;;;;4928377;29;20184;-76
2020/12/07 08:15:46;;;;;;;9.30;5.05;;;1.90;99.90;;;;;;4944966;29;20050;-76
2020/12/07 08:18:18;;;;;;;12.05;6.30;;;2.00;99.90;;;;;;4904761;29;20512;-75
2020/12/07 08:20:54;;;;;;;7.50;4.93;;;2.00;99.90;;;;;;4891882;29;20052;-74
2020/12/07 08:23:26;;;;;;;7.32;4.30;;;2.10;99.90;;;;;;4892497;29;20045;-75
2020/12/07 08:25:52;;;;;;;8.45;4.43;;;2.10;99.90;;;;;;4910045;29;20064;-76
2020/12/07 08:28:27;;;;;;;6.05;3.83;;;2.30;99.90;;;;;;4902642;29;20040;-76
2020/12/07 08:31:18;;;;;;;6.93;4.63;;;2.30;99.90;;;;;;4896548;29;20319;-76
2020/12/07 08:34:12;;;;;;;5.15;3.63;;;2.40;99.90;;;;;;4901298;29;20104;-77
2020/12/07 08:36:38;;;;;;;6.43;3.70;;;2.50;99.90;;;;;;4893004;29;20429;-75
2020/12/07 08:39:05;;;;;;;6.68;4.28;;;2.50;99.90;;;;;;4902566;29;20041;-76
2020/12/07 08:41:32;;;;;;;5.68;3.70;;;2.60;99.90;;;;;;4897028;29;20040;-75
2020/12/07 08:44:01;;;;;;;7.00;3.85;;;2.70;99.90;;;;;;4895387;29;20047;-75
2020/12/07 08:46:28;;;;;;;7.03;3.83;;;2.80;99.90;;;;;;4900537;29;20161;-75
2020/12/07 08:48:55;;;;;;;6.40;3.38;;;2.90;99.90;;;;;;4902683;29;20401;-75
2020/12/07 08:51:24;;;;;;;6.25;3.75;;;3.00;99.90;;;;;;4903007;29;20060;-76
2020/12/07 08:53:49;;;;;;;6.13;3.92;;;3.00;99.90;;;;;;4925901;29;20131;-76
2020/12/07 08:56:15;;;;;;;6.20;3.47;;;3.10;99.90;;;;;;4937332;29;20164;-75
2020/12/07 08:58:41;;;;;;;5.55;3.60;;;3.20;99.90;;;;;;4935070;29;20035;-76
2020/12/07 09:01:08;;;;;;;4.97;3.33;;;3.30;99.90;;;;;;4942335;29;20035;-75
2020/12/07 09:03:35;;;;;;;5.38;3.42;;;3.40;99.90;;;;;;4945310;29;20042;-76
2020/12/07 09:06:04;;;;;;;5.05;3.03;;;3.40;99.90;;;;;;4931316;29;20075;-74
2020/12/07 09:08:30;;;;;;;4.63;2.97;;;3.50;99.90;;;;;;4943885;29;20035;-75
2020/12/07 09:10:56;;;;;;;3.78;2.40;;;3.60;99.90;;;;;;4941661;29;20395;-74
2020/12/07 09:13:25;;;;;;;4.40;2.65;;;3.60;99.90;;;;;;4935230;29;20031;-75
2020/12/07 09:15:52;;;;;;;4.85;2.60;;;3.70;99.90;;;;;;4939968;29;20071;-76
2020/12/07 09:18:18;;;;;;;3.97;2.30;;;3.70;99.90;;;;;;4947674;29;20038;-75
2020/12/07 09:20:44;;;;;;;3.42;2.30;;;3.60;99.90;;;;;;4944805;29;20374;-76
2020/12/07 09:23:09;;;;;;;3.10;2.00;;;3.70;99.90;;;;;;4943661;29;20035;-76
2020/12/07 09:25:35;;;;;;;3.13;1.92;;;3.80;99.90;;;;;;4947452;29;20035;-75
2020/12/07 09:28:01;;;;;;;3.35;1.88;;;3.80;99.90;;;;;;4936472;29;20038;-76
2020/12/07 09:30:26;;;;;;;2.40;1.40;;;3.80;99.90;;;;;;4939807;29;20027;-76
2020/12/07 09:32:52;;;;;;;2.45;1.35;;;3.90;99.90;;;;;;4943249;29;20027;-76
2020/12/07 09:35:18;;;;;;;2.72;1.20;;;3.90;99.90;;;;;;4935086;29;20368;-76
2020/12/07 09:37:44;;;;;;;2.30;1.50;;;4.00;99.90;;;;;;4934901;29;20044;-75
2020/12/07 09:40:11;;;;;;;3.40;1.63;;;4.00;99.90;;;;;;4939184;29;20054;-75
2020/12/07 09:42:40;;;;;;;2.40;1.42;;;4.10;99.90;;;;;;4950058;29;20599;-75
2020/12/07 09:45:07;;;;;;;2.35;1.27;;;4.00;99.90;;;;;;4940971;29;20369;-75
2020/12/07 09:47:34;;;;;;;2.45;1.20;;;3.90;99.90;;;;;;4971747;28;20093;-75
2020/12/07 09:50:01;;;;;;;6.45;1.60;;;3.90;99.90;;;;;;4973159;28;20387;-74
2020/12/07 09:52:26;;;;;;;2.72;1.20;;;3.80;99.90;;;;;;4972632;28;20105;-75
2020/12/07 09:54:52;;;;;;;2.75;1.40;;;3.70;99.90;;;;;;4971906;28;20031;-75
2020/12/07 09:57:18;;;;;;;2.30;1.40;;;3.80;99.90;;;;;;4972881;28;20046;-75
2020/12/07 09:59:46;;;;;;;2.97;1.35;;;3.80;99.90;;;;;;4972684;28;20050;-75
2020/12/07 10:02:12;;;;;;;1.95;1.33;;;3.90;99.90;;;;;;4971334;28;20035;-74
2020/12/07 10:04:38;;;;;;;2.30;1.50;;;4.00;99.90;;;;;;4972331;28;20390;-75
2020/12/07 10:07:03;;;;;;;3.28;1.40;;;4.10;99.90;;;;;;4972723;28;20031;-75
2020/12/07 10:09:29;;;;;;;2.83;1.58;;;4.20;99.90;;;;;;4976679;28;20058;-75
2020/12/07 10:11:55;;;;;;;1.60;1.10;;;4.40;99.90;;;;;;4975347;28;20102;-75
2020/12/07 10:14:20;;;;;;;2.13;1.27;;;4.40;99.90;;;;;;4972627;28;20035;-75
2020/12/07 10:16:46;;;;;;;2.38;1.30;;;4.40;99.90;;;;;;4972372;28;20031;-77
2020/12/07 10:19:12;;;;;;;2.40;1.50;;;4.40;99.90;;;;;;4972761;28;20018;-75
2020/12/07 10:21:39;;;;;;;1.90;1.23;;;4.50;99.90;;;;;;4972029;28;20049;-75
2020/12/07 10:24:04;;;;;;;2.05;1.33;;;4.50;99.90;;;;;;4972261;28;20438;-75
2020/12/07 10:26:30;;;;;;;1.40;1.17;;;4.30;99.90;;;;;;4972293;28;20154;-77
2020/12/07 10:28:56;;;;;;;1.80;1.20;;;4.20;99.90;;;;;;4973298;28;20034;-76
2020/12/07 10:31:23;;;;;;;1.88;1.25;;;4.20;99.90;;;;;;4974391;28;20031;-76
2020/12/07 10:33:49;;;;;;;1.60;1.05;;;4.20;99.90;;;;;;4974198;28;20358;-74
2020/12/07 10:36:16;;;;;;;1.40;1.17;;;4.20;99.90;;;;;;4973965;28;20529;-75
2020/12/07 10:38:43;;;;;;;2.17;1.30;;;4.30;99.90;;;;;;4972296;28;20037;-76
2020/12/07 10:41:09;;;;;;;2.17;1.48;;;4.30;99.90;;;;;;4970145;28;20390;-75
2020/12/07 10:43:35;;;;;;;1.65;1.38;;;4.30;99.90;;;;;;4972215;28;20043;-75
2020/12/07 10:46:00;;;;;;;1.92;1.30;;;4.20;99.90;;;;;;4971815;28;20059;-77
2020/12/07 10:48:26;;;;;;;2.03;1.40;;;4.20;99.90;;;;;;4971643;28;20034;-76
2020/12/07 10:50:52;;;;;;;2.20;1.40;;;4.30;99.90;;;;;;4971483;28;20050;-76
2020/12/07 10:53:17;;;;;;;2.33;1.48;;;4.50;99.90;;;;;;4971869;28;20031;-75
2020/12/07 10:55:43;;;;;;;3.38;1.90;;;4.60;99.90;;;;;;4971377;28;20097;-76
2020/12/07 10:58:09;;;;;;;2.95;1.42;;;4.70;99.90;;;;;;4971937;28;20466;-75
2020/12/07 11:00:37;;;;;;;3.95;1.65;;;4.90;99.90;;;;;;4971347;28;20122;-77
2020/12/07 11:03:03;;;;;;;8.02;2.40;;;5.10;99.90;;;;;;4971399;28;20023;-76
2020/12/07 11:05:29;;;;;;;4.32;2.88;;;5.40;99.90;;;;;;4971253;28;20031;-77
2020/12/07 11:07:55;;;;;;;3.92;1.98;;;5.40;99.90;;;;;;4971269;28;20023;-76
2020/12/07 11:10:21;;;;;;;7.80;4.53;;;5.60;99.90;;;;;;4972930;28;20031;-75
2020/12/07 11:12:54;;;;;;;11.98;8.02;;;5.80;99.90;;;;;;4971966;28;20545;-76
2020/12/07 11:15:19;;;;;;;4.75;2.50;;;6.00;99.90;;;;;;4973912;28;20477;-75
2020/12/07 11:17:45;;;;;;;4.22;1.80;;;6.10;99.90;;;;;;4971753;28;20022;-75
2020/12/07 11:20:10;;;;;;;3.13;1.45;;;5.90;99.90;;;;;;4953806;28;20046;-77
2020/12/07 11:22:36;;;;;;;2.15;1.40;;;5.90;99.90;;;;;;4971517;28;20023;-76
2020/12/07 11:25:02;;;;;;;2.35;1.23;;;5.90;99.90;;;;;;4971202;28;20166;-78
2020/12/07 11:27:28;;;;;;;2.22;1.38;;;5.80;99.90;;;;;;4971590;28;20042;-76
2020/12/07 11:29:53;;;;;;;2.78;1.67;;;5.70;99.90;;;;;;4970859;28;20471;-77
2020/12/07 11:32:19;;;;;;;3.35;1.90;;;5.60;99.90;;;;;;4953757;28;20081;-76
2020/12/07 11:34:44;;;;;;;2.80;1.75;;;5.60;99.90;;;;;;4970816;28;20074;-77
2020/12/07 11:37:10;;;;;;;7.20;4.40;;;5.60;99.90;;;;;;4970972;28;20030;-75
2020/12/07 11:39:42;;;;;;;4.55;2.70;;;5.50;99.90;;;;;;4968013;28;20031;-77
2020/12/07 11:44:34;;;;;;;7.22;4.03;;;5.50;99.90;;;;;;4971492;28;20244;-76
2020/12/07 11:47:05;;;;;;;3.88;1.80;;;5.50;99.90;;;;;;4971303;28;20134;-74
2020/12/07 11:49:30;;;;;;;3.25;1.58;;;5.50;99.90;;;;;;4970370;28;20031;-75
2020/12/07 11:52:00;;;;;;;2.95;1.80;;;5.40;99.90;;;;;;4970871;28;20086;-75
2020/12/07 11:54:26;;;;;;;3.10;1.85;;;5.40;99.90;;;;;;4970578;28;20035;-75
2020/12/07 11:56:51;;;;;;;2.58;1.40;;;5.40;99.90;;;;;;4970407;28;20045;-75
2020/12/07 11:59:17;;;;;;;2.63;1.83;;;5.50;99.90;;;;;;4953293;28;20039;-76
2020/12/07 12:01:42;;;;;;;3.75;2.00;;;5.40;99.90;;;;;;4969997;28;20023;-76
2020/12/07 12:04:08;;;;;;;4.78;1.80;;;5.40;99.90;;;;;;4970430;28;20494;-76
2020/12/07 12:06:38;;;;;;;4.40;1.77;;;5.40;99.90;;;;;;4970121;28;20027;-78
2020/12/07 12:09:06;;;;;;;5.93;1.88;;;5.40;99.90;;;;;;4970624;28;20022;-78
2020/12/07 12:11:33;;;;;;;3.03;1.40;;;5.30;99.90;;;;;;4970203;28;20027;-76
2020/12/07 12:14:00;;;;;;;3.20;1.42;;;5.10;99.90;;;;;;4970498;28;20026;-76
2020/12/07 12:16:27;;;;;;;2.83;1.58;;;4.90;99.90;;;;;;4969450;28;20035;-76
2020/12/07 12:18:57;;;;;;;3.30;2.00;;;4.90;99.90;;;;;;4952657;28;20035;-77
2020/12/07 12:21:24;;;;;;;4.25;1.70;;;5.00;99.90;;;;;;4970042;28;20037;-76
2020/12/07 12:23:50;;;;;;;3.10;1.52;;;4.90;99.90;;;;;;4968754;28;20154;-76
2020/12/07 12:26:17;;;;;;;2.92;1.90;;;4.90;99.90;;;;;;4953125;28;20115;-75
2020/12/07 12:28:43;;;;;;;3.00;1.95;;;5.00;99.90;;;;;;4969826;28;20027;-76
2020/12/07 12:31:09;;;;;;;4.10;2.00;;;5.00;99.90;;;;;;4970457;28;20499;-75
2020/12/07 12:33:35;;;;;;;5.15;2.00;;;5.00;99.90;;;;;;4969685;28;20041;-76
2020/12/07 12:36:01;;;;;;;3.22;1.92;;;5.00;99.90;;;;;;4952675;28;20110;-77
2020/12/07 12:38:27;;;;;;;2.97;1.52;;;5.00;99.90;;;;;;4970070;28;20034;-75
2020/12/07 12:40:52;;;;;;;5.65;2.13;;;5.00;99.90;;;;;;4966941;28;20046;-76
2020/12/07 12:43:18;;;;;;;2.90;1.85;;;5.00;99.90;;;;;;4969614;28;20081;-75
2020/12/07 12:45:43;;;;;;;2.17;1.60;;;5.00;99.90;;;;;;4969189;28;20095;-75
2020/12/07 12:48:09;;;;;;;2.38;1.77;;;4.80;99.90;;;;;;4970149;28;20441;-75
2020/12/07 12:50:35;;;;;;;2.63;1.67;;;4.80;99.90;;;;;;4969691;28;20023;-74
2020/12/07 12:53:00;;;;;;;2.63;1.10;;;4.80;99.90;;;;;;4970049;28;20030;-78
2020/12/07 12:55:26;;;;;;;2.63;1.75;;;4.80;99.90;;;;;;4969650;28;20027;-76
2020/12/07 12:57:52;;;;;;;2.88;1.65;;;4.80;99.90;;;;;;4969958;28;20031;-75
2020/12/07 13:00:18;;;;;;;1.42;1.10;;;4.80;99.90;;;;;;4969529;28;20034;-76
2020/12/07 13:02:44;;;;;;;2.55;1.30;;;4.80;99.90;;;;;;4969880;28;20042;-76
2020/12/07 13:05:09;;;;;;;2.45;1.40;;;4.70;99.90;;;;;;4969737;28;20038;-76
2020/12/07 13:07:35;;;;;;;3.78;1.70;;;4.70;99.90;;;;;;4969709;28;20046;-77
2020/12/07 13:10:00;;;;;;;2.40;1.20;;;4.70;99.90;;;;;;4969969;28;20603;-76
2020/12/07 13:12:26;;;;;;;2.78;1.17;;;4.80;99.90;;;;;;4969755;28;20427;-76
2020/12/07 13:14:52;;;;;;;2.20;0.90;;;4.70;99.90;;;;;;4952207;28;20045;-77
2020/12/07 13:17:23;;;;;;;1.75;1.10;;;4.70;99.90;;;;;;4969684;28;20059;-75
2020/12/07 13:19:49;;;;;;;4.97;1.38;;;4.80;99.90;;;;;;4969302;28;20027;-76
2020/12/07 13:24:50;;;;;;;2.55;1.33;;;4.70;99.90;;;;;;4969321;28;20054;-77
2020/12/07 13:29:50;;;;;;;3.28;1.60;;;4.70;99.90;;;;;;4970654;28;20034;-75
2020/12/07 13:32:15;;;;;;;3.63;1.65;;;4.70;99.90;;;;;;4972368;28;20447;-75
2020/12/07 13:34:41;;;;;;;2.28;1.50;;;4.60;99.90;;;;;;4971995;28;20034;-77